Time;durP1;ratioP1;P1;durP2;ratioP2;P2;SDS_P1;SDS_P2;PMS_P1;PMS_P2;Temp;Humidity;BMP_temperature;BMP_pressure;BME280_temperature;BME280_humidity;BME280_pressure;Samples;Min_cycle;Max_cycle;Signal;HPM_P1;HPM_P2
2023/08/16 00:04:46;;;;;;;1.88;1.05;;;;;;;;;;21054713;28;20598;-69
2023/08/16 00:14:47;;;;;;;1.30;1.08;;;;;;;;;;21071484;28;20447;-69
2023/08/16 00:24:49;;;;;;;0.95;0.77;;;;;;;;;;21049796;28;20618;-69
2023/08/16 00:34:51;;;;;;;1.02;0.80;;;;;;;;;;21072422;28;20768;-69
2023/08/16 00:44:52;;;;;;;1.33;0.73;;;;;;;;;;21067272;28;20621;-69
2023/08/16 00:54:55;;;;;;;1.45;0.90;;;;;;;;;;21065330;28;20783;-69
2023/08/16 01:04:57;;;;;;;1.77;0.90;;;;;;;;;;21054093;28;20217;-69
2023/08/16 01:15:07;;;;;;;3.78;1.08;;;;;;;;;;21067702;28;20243;-69
2023/08/16 01:25:09;;;;;;;2.97;0.70;;;;;;;;;;21070831;28;20674;-69
2023/08/16 01:35:11;;;;;;;1.90;0.88;;;;;;;;;;21014678;28;20224;-69
2023/08/16 01:45:16;;;;;;;1.02;0.90;;;23.40;99.90;;;;;;21062751;28;20291;-69
2023/08/16 01:55:18;;;;;;;1.83;0.98;;;;;;;;;;21067102;28;20226;-69
2023/08/16 02:05:20;;;;;;;1.63;0.85;;;;;;;;;;21055322;28;20222;-69
2023/08/16 02:15:21;;;;;;;1.63;0.82;;;;;;;;;;21067794;28;20299;-69
2023/08/16 02:25:23;;;;;;;0.82;0.65;;;;;;;;;;21046666;28;20218;-69
2023/08/16 02:35:25;;;;;;;1.00;0.73;;;;;;;;;;21041310;28;20234;-69
2023/08/16 02:45:26;;;;;;;1.40;0.95;;;;;;;;;;21047973;28;20279;-69
2023/08/16 02:55:28;;;;;;;2.42;0.90;;;;;;;;;;21049659;28;20225;-69
2023/08/16 03:05:30;;;;;;;1.80;0.90;;;;;;;;;;21045220;28;20214;-69
2023/08/16 03:15:33;;;;;;;1.50;1.08;;;;;;;;;;21034896;28;20246;-69
2023/08/16 03:25:34;;;;;;;1.23;0.98;;;;;;;;;;21048076;28;20213;-69
2023/08/16 03:35:36;;;;;;;1.20;0.85;;;;;;;;;;21043926;28;20220;-69
2023/08/16 03:45:39;;;;;;;1.67;1.00;;;;;;;;;;21058221;28;20220;-69
2023/08/16 03:55:41;;;;;;;2.13;1.52;;;;;;;;;;21036165;28;20216;-69
2023/08/16 04:05:43;;;;;;;1.73;1.00;;;;;;;;;;21056053;28;20770;-69
2023/08/16 04:15:45;;;;;;;2.58;1.13;;;;;;;;;;21035288;28;20765;-69
2023/08/16 04:25:46;;;;;;;1.70;1.20;;;;;;;;;;21023987;28;20211;-69
2023/08/16 04:35:48;;;;;;;1.77;1.20;;;;;;;;;;21022703;28;20228;-69
2023/08/16 04:45:50;;;;;;;2.00;1.27;;;;;;;;;;21051103;28;20276;-69
2023/08/16 04:55:52;;;;;;;2.92;1.35;;;;;;;;;;21002919;28;20275;-71
2023/08/16 05:06:03;;;;;;;2.55;1.67;;;22.80;99.90;;;;;;21050759;28;20206;-72
2023/08/16 05:16:05;;;;;;;1.90;1.30;;;;;;;;;;21058077;28;20240;-72
2023/08/16 05:26:08;;;;;;;1.90;1.30;;;;;;;;;;21047020;28;20246;-71
2023/08/16 05:36:10;;;;;;;1.40;1.10;;;;;;;;;;21027856;28;20219;-71
2023/08/16 05:46:12;;;;;;;3.30;1.50;;;;;;;;;;21059182;22;20584;-68
2023/08/16 05:56:14;;;;;;;2.95;2.00;;;;;;;;;;20953639;28;20237;-69
2023/08/16 06:06:16;;;;;;;2.70;1.83;;;;;;;;;;20949057;28;20288;-68
2023/08/16 06:16:18;;;;;;;3.67;1.92;;;;;;;;;;20948751;28;20282;-67
2023/08/16 06:26:19;;;;;;;2.28;1.60;;;;;;;;;;20948121;28;20289;-67
2023/08/16 06:36:22;;;;;;;3.30;2.17;;;;;;;;;;20947084;28;20232;-68
2023/08/16 06:46:24;;;;;;;3.22;2.30;;;;;;;;;;20945593;28;20303;-68
2023/08/16 06:56:26;;;;;;;3.53;2.83;;;;;;;;;;20929965;28;20248;-68
2023/08/16 07:06:31;;;;;;;4.85;3.05;;;;;;;;;;20958169;28;20576;-68
2023/08/16 07:16:35;;;;;;;7.78;4.05;;;;;;;;;;20975257;28;20233;-69
2023/08/16 07:26:38;;;;;;;4.85;3.58;;;;;;;;;;20892713;28;20268;-69
2023/08/16 07:36:39;;;;;;;4.68;3.58;;;;;;;;;;20933064;28;20211;-68
2023/08/16 07:46:41;;;;;;;4.95;3.47;;;;;;;;;;20960916;28;20561;-68
2023/08/16 07:56:43;;;;;;;4.13;3.30;;;;;;;;;;20944166;28;20589;-68
2023/08/16 08:06:45;;;;;;;4.80;3.20;;;23.10;99.90;;;;;;20889390;28;20680;-69
2023/08/16 08:16:47;;;;;;;4.88;3.28;;;;;;;;;;20938676;28;20229;-68
2023/08/16 08:26:49;;;;;;;4.85;3.58;;;;;;;;;;20898349;28;20248;-68
2023/08/16 08:36:50;;;;;;;4.60;3.00;;;;;;;;;;20927212;28;20700;-69
2023/08/16 08:46:53;;;;;;;3.92;2.80;;;;;;;;;;20941594;28;20302;-68
2023/08/16 08:56:55;;;;;;;3.03;2.20;;;;;;;;;;20935168;28;20288;-68
2023/08/16 09:06:59;;;;;;;4.28;3.10;;;;;;;;;;20919746;28;20215;-68
2023/08/16 09:17:01;;;;;;;3.70;2.88;;;;;;;;;;20914523;28;20275;-68
2023/08/16 09:27:03;;;;;;;3.45;2.60;;;;;;;;;;20902121;28;20251;-68
2023/08/16 09:37:05;;;;;;;5.72;3.53;;;;;;;;;;20932617;28;20221;-68
2023/08/16 09:47:14;;;;;;;4.82;3.22;;;;;;;;;;20953430;28;20516;-68
2023/08/16 09:57:17;;;;;;;4.05;2.80;;;25.20;99.90;;;;;;20958977;28;20626;-68
2023/08/16 10:07:19;;;;;;;5.05;3.10;;;25.20;99.90;;;;;;20952934;28;20272;-68
2023/08/16 10:17:21;;;;;;;3.22;2.40;;;26.20;99.90;;;;;;20925811;28;20216;-68
2023/08/16 10:27:25;;;;;;;3.22;1.88;;;;;;;;;;20952224;28;20212;-69
2023/08/16 10:37:27;;;;;;;5.97;2.05;;;;;;;;;;20944271;28;20729;-69
2023/08/16 10:47:29;;;;;;;2.55;1.88;;;;;;;;;;20973124;28;20232;-69
2023/08/16 10:57:31;;;;;;;4.07;2.20;;;;;;;;;;20947360;28;20869;-69
2023/08/16 11:07:33;;;;;;;3.28;2.50;;;;;;;;;;20882745;28;20755;-70
2023/08/16 11:17:35;;;;;;;3.22;1.90;;;;;;;;;;20908772;28;20227;-76
2023/08/16 11:27:38;;;;;;;3.00;2.10;;;;;;;;;;20947803;28;20224;-76
2023/08/16 11:37:41;;;;;;;3.08;1.90;;;;;;;;;;20941218;28;20219;-75
2023/08/16 11:47:43;;;;;;;3.70;2.28;;;;;;;;;;20991515;28;20702;-75
2023/08/16 11:57:46;;;;;;;2.92;1.67;;;29.00;99.90;;;;;;20946278;28;20270;-76
2023/08/16 12:07:51;;;;;;;2.22;1.83;;;29.20;99.90;;;;;;20895660;28;20832;-75
2023/08/16 12:17:57;;;;;;;3.88;1.88;;;;;;;;;;20925263;28;20280;-76
2023/08/16 12:27:59;;;;;;;4.07;1.45;;;;;;;;;;20992399;22;20279;-69
2023/08/16 12:38:04;;;;;;;2.58;1.23;;;;;;;;;;20945139;28;20289;-69
2023/08/16 12:48:05;;;;;;;2.15;1.30;;;28.80;99.90;;;;;;20892674;28;20229;-69
2023/08/16 12:58:07;;;;;;;3.15;1.85;;;;;;;;;;20899016;28;20267;-70
2023/08/16 13:08:10;;;;;;;2.17;1.20;;;;;;;;;;20862437;28;20296;-69
2023/08/16 13:18:12;;;;;;;1.58;1.20;;;;;;;;;;20881305;28;20448;-70
2023/08/16 13:28:14;;;;;;;2.67;1.50;;;;;;;;;;20897813;28;20716;-70
2023/08/16 13:38:15;;;;;;;2.33;1.20;;;;;;;;;;20900505;28;20647;-70
2023/08/16 13:48:17;;;;;;;1.35;1.00;;;;;;;;;;20909884;28;20286;-70
2023/08/16 13:58:20;;;;;;;2.10;1.20;;;;;;;;;;20848076;28;20234;-70
2023/08/16 14:08:22;;;;;;;2.17;1.13;;;;;;;;;;20845012;28;20672;-70
2023/08/16 14:18:24;;;;;;;1.60;1.10;;;;;;;;;;20846908;28;20276;-70
2023/08/16 14:28:26;;;;;;;1.25;0.90;;;;;;;;;;20843896;28;20242;-70
2023/08/16 14:38:27;;;;;;;1.92;1.05;;;;;;;;;;20847334;28;20271;-70
2023/08/16 14:48:29;;;;;;;2.05;1.00;;;;;;;;;;20872907;28;20218;-70
2023/08/16 14:58:31;;;;;;;2.47;1.00;;;;;;;;;;20847835;28;20227;-70
2023/08/16 15:08:38;;;;;;;1.30;1.00;;;;;;;;;;20841752;28;20218;-70
2023/08/16 15:18:39;;;;;;;1.70;1.00;;;;;;;;;;20883106;28;20210;-70
2023/08/16 15:28:41;;;;;;;1.98;1.00;;;;;;;;;;20886772;28;20283;-70
2023/08/16 15:38:47;;;;;;;1.20;0.90;;;29.90;99.90;;;;;;20866825;28;20268;-70
2023/08/16 15:48:49;;;;;;;1.65;1.08;;;;;;;;;;20882135;28;20202;-70
2023/08/16 15:58:51;;;;;;;2.00;1.00;;;;;;;;;;20886235;28;20719;-69
2023/08/16 16:08:53;;;;;;;1.58;0.95;;;;;;;;;;20851853;28;20209;-70
2023/08/16 16:18:55;;;;;;;1.20;0.88;;;;;;;;;;20829338;28;20226;-70
2023/08/16 16:28:58;;;;;;;3.00;1.10;;;;;;;;;;20863747;28;20283;-70
2023/08/16 16:38:59;;;;;;;2.28;0.90;;;;;;;;;;20859377;28;20287;-70
2023/08/16 16:49:01;;;;;;;1.63;1.00;;;;;;;;;;20889018;28;20218;-71
2023/08/16 16:59:03;;;;;;;2.22;1.00;;;;;;;;;;20889311;28;20218;-71
2023/08/16 17:09:06;;;;;;;2.10;1.10;;;;;;;;;;20850804;28;20233;-70
2023/08/16 17:19:08;;;;;;;3.55;1.27;;;;;;;;;;20880495;28;20263;-70
2023/08/16 17:29:11;;;;;;;2.90;1.20;;;;;;;;;;20839453;28;20721;-71
2023/08/16 17:39:13;;;;;;;1.85;1.17;;;;;;;;;;20882822;28;20276;-71
2023/08/16 17:49:15;;;;;;;2.28;1.30;;;;;;;;;;20876162;28;20655;-71
2023/08/16 17:59:18;;;;;;;2.78;1.20;;;;;;;;;;20890038;28;20221;-71
2023/08/16 18:09:20;;;;;;;1.42;0.82;;;;;;;;;;20898138;28;20492;-71
2023/08/16 18:19:22;;;;;;;2.03;0.77;;;;;;;;;;20860705;28;20279;-71
2023/08/16 18:29:28;;;;;;;1.10;0.70;;;;;;;;;;20970152;23;20707;-71
2023/08/16 18:39:30;;;;;;;1.00;0.60;;;;;;;;;;20942192;28;20228;-71
2023/08/16 18:49:32;;;;;;;1.05;0.70;;;;;;;;;;20956158;28;20225;-71
2023/08/16 18:59:33;;;;;;;2.92;0.90;;;;;;;;;;20909901;28;20770;-71
2023/08/16 19:09:35;;;;;;;3.63;0.80;;;;;;;;;;20898788;28;20219;-71
2023/08/16 19:19:37;;;;;;;1.50;0.77;;;;;;;;;;20933389;28;20219;-71
2023/08/16 19:29:39;;;;;;;1.10;0.68;;;;;;;;;;20915825;28;20293;-72
2023/08/16 19:39:41;;;;;;;1.33;0.88;;;;;;;;;;20979740;28;20598;-72
2023/08/16 19:49:46;;;;;;;0.98;0.68;;;;;;;;;;20949237;28;20294;-71
2023/08/16 19:59:47;;;;;;;0.95;0.60;;;;;;;;;;20901741;28;20311;-72
2023/08/16 20:09:49;;;;;;;2.00;0.50;;;;;;;;;;20944671;28;20210;-69
2023/08/16 20:19:51;;;;;;;1.02;0.60;;;26.40;99.90;;;;;;20948161;28;20273;-70
2023/08/16 20:29:53;;;;;;;0.63;0.50;;;;;;;;;;20963017;28;20211;-69
2023/08/16 20:39:55;;;;;;;2.00;0.88;;;;;;;;;;20928813;28;20227;-70
2023/08/16 20:49:57;;;;;;;2.47;0.75;;;;;;;;;;20930667;28;20220;-69
2023/08/16 20:59:59;;;;;;;0.65;0.50;;;;;;;;;;20906323;28;20212;-70
2023/08/16 21:10:01;;;;;;;1.48;0.40;;;;;;;;;;20910863;28;20253;-70
2023/08/16 21:20:03;;;;;;;0.50;0.40;;;;;;;;;;20876942;28;20201;-70
2023/08/16 21:30:06;;;;;;;1.40;1.05;;;25.80;99.90;;;;;;20911614;28;20224;-70
2023/08/16 21:40:08;;;;;;;1.73;0.85;;;;;;;;;;20954224;28;20279;-70
2023/08/16 21:50:11;;;;;;;1.05;0.40;;;;;;;;;;20954441;28;21199;-70
2023/08/16 22:00:13;;;;;;;0.52;0.40;;;;;;;;;;20924375;28;20642;-70
2023/08/16 22:10:16;;;;;;;0.47;0.40;;;;;;;;;;20934287;28;20205;-70
2023/08/16 22:20:18;;;;;;;0.60;0.43;;;;;;;;;;20913773;28;20719;-70
2023/08/16 22:30:20;;;;;;;0.73;0.40;;;;;;;;;;20915604;28;20293;-70
2023/08/16 22:40:23;;;;;;;1.20;0.50;;;;;;;;;;20916802;28;20273;-70
2023/08/16 22:50:24;;;;;;;1.25;0.50;;;;;;;;;;20927149;28;20769;-70
2023/08/16 23:00:27;;;;;;;1.08;0.65;;;;;;;;;;20912531;28;20314;-70
2023/08/16 23:10:29;;;;;;;0.63;0.50;;;;;;;;;;20892857;28;20247;-69
2023/08/16 23:20:31;;;;;;;0.95;0.60;;;;;;;;;;20887496;28;20769;-70
2023/08/16 23:30:32;;;;;;;1.10;0.63;;;;;;;;;;20929016;28;20232;-70
2023/08/16 23:40:34;;;;;;;0.65;0.60;;;;;;;;;;20899412;28;20241;-69
2023/08/16 23:50:36;;;;;;;0.63;0.47;;;;;;;;;;20921432;28;20244;-70
